Aérodrome :
LOGIN :

S'inscrire | Disclaimer

   EN    FR    IT 

 










Légende :    VFR   VFR Marginal   IFR   IFR Intensif   IFR Très Intensif
Visi : 
Plafond : 
>= 8 km
>= 3000ft
5 à 8 km
1000 à 3000 ft
1500m à 5 km
500 à 1000 ft
800 à 1500m
200 à 500 ft
< 800m
< 200 ft
Symboles :   Orages  Brouillard  Fortes neiges  Fortes précipitations  Vent > 20 kt
SIGMETs :   Divers  Orages  Givrage  Turbulence  Onde Orograph.  Cendres Volcan.






- Altitude de l'aérodrome : 359 ft
- Code IATA : BVA


LFOB - Beauvais

DERNIER METAR :
  • 152030Z AUTO 17008KT CAVOK 07/05 Q1005 TEMPO BKN007 BECMG 23010KT

METARs EXPIRÉS :
  • 152000Z AUTO 19011KT 9999 -RA FEW042 BKN050 BKN060 08/05 Q1005 TEMPO BKN007
  • 151930Z AUTO 17009KT 9999 FEW045 BKN054 OVC066 07/04 Q1005 TEMPO BKN007 BECMG 23010KT
  • 151900Z AUTO 18007KT CAVOK 07/04 Q1005 NOSIG
  • 151830Z AUTO 19007KT CAVOK 07/04 Q1005 NOSIG
  • 151800Z AUTO 19008KT CAVOK 07/04 Q1005 NOSIG

TAF TAF LFOB
Valide du 15 à 18h jusqu'au 16 à 18h UTC


151700Z 1518/1618 23010KT CAVOK
TEMPO 1521/1604 BKN007
BECMG 1606/1608 OVC005
TEMPO 1608/1618 3000 RA
ATIS : +33 3 44 11 49 28



MET'MAP, la Météo Aéronautique d'un coup d'oeil ! - Copyright ORBIFLY Décembre 2007 - Disclaimer

ORBIFLY MET'MAP TEAM :

Programmation & Développement : Alexandra Zaïnal
Sur une idée originale de : Baudouin d'Aumeries
Assistance à la programmation : Marc-Olivier Méhu
Soutien technique & logistique : Manuel Goepfert

Contact : metmap@orbifly.com




SOURCES & CREDITS :

   NOAA